aviador You're here:

KGKJ Decoded Metar

MEADVILLE in PA, USA
Report Time2017-06-26 23:53:00
UTC Time2017-06-27 00:08:00
Flight Rules vfr VFR
Wind270° at 06 kt
W.Decomp.*RWY 25: 5.3 kt HW 2.8 kt RCW
W.Rank270° ranks 10
Current wind is below 270° avg. (7.8)
Visibility9999 m
Phenomena:N/A
Clouds:Broken 090 Hf
Overcast 110 Hf
Expected CloudBase > 3,600 ft AGL from Temp-Dew spread
Ceiling9,000 ft
Temp17°C (ISA +5)
Dew Point08°C (56% RH)
AAT14.4°C
QNH1016 hPa
Density Alt2,014 ft
Elevation1,404 ft
Report Wrong Elevation
Raw Report
METAR KGKJ 262353Z AUTO 27006KT 10SM BKN090 OVC110 17/08 A3001 RMK
AO2 SLP160 60005 T01720078 10194 20133 55005 TSNO=

Extra information for KGKJ:More info

Metar Taf Metar & Taf Last 4 Metars F.Rules Stats Wind Profile Meteogram Temp Stats Airport Information Weather charts Add Link Nearby VenuesMetar ALERT Operation Metar Decoded Social comments

AIRNAV info for KGKJ